עמוד ראשי
METAR-TAF:

METAR-TAF

שדות תעופה :

אפיה, אופולו, סמואה

קו רוחב: 13-49S, קו אורך: 172-00W, גובה: 5מטר

תצפית מזג אוויר נוכחית

הדו"ח נערך לפני 1 שעות ו 12דקות, בשעה 11:00 UTC
רוח 4קשר מכיוון צפון-מזרח
טמפרטורת 27 צלסיוס
לחות 89%
לחץ 1013 hPa
ראות 10 קילומטר או יותר
עננים פזורים בגובה 2200רגל
עננים בינוניים בגובה 15000רגל

METAR: NSFA 151100Z 04004KT 9999 SCT022 BKN150 27/25 Q1013

זמן: 01:12 (12:12 UTC)

תחזית

הדו"ח נערך לפני 1 שעות ו 6דקות, בשעה 11:06 UTC
תחזית בתוקף מ 15 ב 12 UTC עד 16 ב 12 UTC
רוח 6קשר מכיוון מזרח/דרום-מזרח
ראות 10 קילומטר או יותר
מעט עננים בגובה 2400רגל
עננים פזורים בגובה 6000רגל
הסתברות 40% :
זמנית מ -
15 ב 12 UTC עד 15 ב 24 UTC
ראות: 5000מטר
מעט עננים בגובה 1800רגל , קומולונימבוס.
סופת רעמים, גשם
הסתברות 40% :
זמנית מ -
16 ב 03 UTC עד 16 ב 08 UTC
ראות: 5000מטר
עננים בינוניים בגובה 1400רגל
מעט עננים בגובה 1700רגל , קומולונימבוס.
סופת רעמים, גשם,

TAF: NSFA 151106Z 1512/1612 12006KT 9999 FEW024 SCT060 PROB40 TEMPO 1512/1524 5000 TSRA FEW018CB PROB40 TEMPO 1603/1608 5000 TSRA BKN014 FEW017CB

תצפיות ותחזיות מזג אוויר לגבי יותר מ- 4,000 שדות תעופה ברחבי העולם. דוחות METAR ו- TAF.

התחנות הזמינות מסומנות בנקודות צהובות ואדומות על גבי המפה.

העבר את העכבר לנקודה הצבעונית על מנת לראות את שם התחנה.

לאחר מכן, לחץ כדי לראות את תוכן ואת תחזיות מזג האוויר.

כדי לשנות את המפה: לחץ על הכפתורים הירוקים עם הפלוס השחור כדי להתקרב; על הכפתור הירוק עם המקף כדי להתרחק; או בחיצים הירוקים למפות סמוכות.


METAR-TAF: